Accueil
METAR-TAF:

METAR-TAF

Aéroports :

Capri, Italie

latitude: 40-33N, longitude: 014-12E, altitude: 160 m

Observation

Le bulletin a été fait il y a 1 heure et 50 minutes, à 21:55 UTC
Vent 4 kt de nord-est
Température 28°C
Humidité 66%
Pression 1014 hPa
Visibilité 10 km ou plus
pas de nuages en-dessous de 1500 mètres et pas de cumulonimbus.

METAR: LIQC 152155Z 04004KT CAVOK 28/21 Q1014 RMK SKC QUK / QUL / VIS MAR 15 KM VIS MIN 9999

Heure: 01:45 (23:45 UTC)


TAF: absent

Observations et prévisions météorologiques de plus de 4000 aéroports (messages METAR et TAF).

Les stations disponibles sont représentées par des disques jaunes et rouges sur la carte.

Passer la souris dessus pour voir le nom de la station.

Cliquer dessus pour voir les observations et prévisions météorologiques.

Pour changer de carte: cliquez sur les boutons verts avec une croix noire pour zoomer, sur le bouton vert avec un tiret pour effectuer un zoom arrière, ou sur les flèches vertes pour les cartes adjacentes.


METAR-TAF: